Time;durP1;ratioP1;P1;durP2;ratioP2;P2;SDS_P1;SDS_P2;PMS_P1;PMS_P2;Temp;Humidity;BMP_temperature;BMP_pressure;BME280_temperature;BME280_humidity;BME280_pressure;Samples;Min_cycle;Max_cycle;Signal;HPM_P1;HPM_P2
2022/01/06 00:00:28;;;;;;;6.13;3.80;;;2.90;72.60;;;1.35;79.86;97446.06;5053697;28;20453;-71
2022/01/06 00:02:55;;;;;;;9.93;4.20;;;3.00;72.60;;;1.37;80.26;97463.53;5039726;28;20456;-71
2022/01/06 00:05:22;;;;;;;7.97;3.87;;;2.90;72.90;;;1.44;79.83;97457.50;5037701;28;20543;-71
2022/01/06 00:07:50;;;;;;;6.83;3.60;;;3.00;72.90;;;1.37;80.16;97460.06;5049587;28;21169;-72
2022/01/06 00:10:17;;;;;;;7.63;3.57;;;3.00;72.90;;;1.29;80.59;97454.72;5051723;28;20457;-72
2022/01/06 00:12:51;;;;;;;10.80;4.37;;;2.90;73.30;;;1.41;80.12;97459.50;5052945;28;20514;-73
2022/01/06 00:15:32;;;;;;;7.47;4.40;;;2.90;73.00;;;1.48;80.01;97469.50;5041147;28;20464;-72
2022/01/06 00:23:30;;;;;;;5.10;3.90;;;3.00;73.60;;;1.50;80.16;97478.16;5040582;28;20543;-71
2022/01/06 00:26:00;;;;;;;9.50;4.07;;;3.00;73.30;;;1.38;80.37;97470.50;5056739;28;20971;-71
2022/01/06 00:28:27;;;;;;;10.03;3.47;;;3.00;73.50;;;1.51;80.36;97475.28;5036980;28;20489;-70
2022/01/06 00:30:55;;;;;;;6.47;3.57;;;3.00;73.50;;;1.40;80.43;97468.50;5058679;28;20462;-72
2022/01/06 00:33:22;;;;;;;6.50;3.93;;;3.00;73.70;;;1.41;80.47;97470.16;5038859;28;20533;-71
2022/01/06 00:35:50;;;;;;;11.60;4.40;;;3.00;73.70;;;1.45;80.40;97480.50;5056026;28;20481;-70
2022/01/06 00:38:17;;;;;;;4.50;3.93;;;3.00;73.70;;;1.56;80.47;97482.78;5036746;28;21577;-71
2022/01/06 00:40:45;;;;;;;11.57;4.37;;;3.00;74.00;;;1.48;80.68;97480.16;5058610;28;20489;-71
2022/01/06 00:43:12;;;;;;;8.33;4.00;;;3.00;74.00;;;1.46;80.56;97477.66;5054326;28;20966;-71
2022/01/06 00:45:40;;;;;;;7.70;4.27;;;3.00;74.00;;;1.54;80.28;97482.13;5058229;28;20466;-72
2022/01/06 00:48:10;;;;;;;6.43;4.40;;;3.00;74.00;;;1.57;79.98;97481.78;5041922;28;21649;-72
2022/01/06 00:50:38;;;;;;;9.63;4.17;;;3.10;74.10;;;1.45;80.59;97483.97;5058483;28;20507;-71
2022/01/06 00:53:05;;;;;;;11.70;4.10;;;3.00;74.10;;;1.11;80.94;97432.63;5055605;28;20471;-72
2022/01/06 00:55:33;;;;;;;12.53;4.63;;;3.00;74.40;;;1.38;81.71;97491.00;5052063;28;20458;-71
2022/01/06 00:58:02;;;;;;;8.30;4.60;;;2.90;74.60;;;1.41;81.52;97496.78;5037940;28;20457;-71
2022/01/06 01:00:37;;;;;;;6.73;4.03;;;2.90;74.80;;;1.35;81.56;97502.81;5051782;28;20519;-70
2022/01/06 01:03:04;;;;;;;6.30;4.50;;;2.90;74.90;;;1.37;81.46;97503.47;5054289;28;20460;-71
2022/01/06 01:05:32;;;;;;;6.43;4.50;;;2.90;74.90;;;1.37;81.66;97499.97;5047605;28;20477;-71
2022/01/06 01:07:59;;;;;;;7.70;4.00;;;2.90;75.10;;;1.48;81.78;97504.94;5055668;28;20576;-71
2022/01/06 01:10:25;;;;;;;10.40;4.83;;;3.00;75.40;;;1.41;81.66;97502.13;5045774;28;20480;-70
2022/01/06 01:12:52;;;;;;;8.27;4.87;;;3.00;75.20;;;1.48;81.66;97506.78;5052596;28;20454;-71
2022/01/06 01:15:22;;;;;;;6.20;3.80;;;3.00;75.20;;;1.49;81.34;97511.91;5055183;28;20457;-71
2022/01/06 01:17:51;;;;;;;8.47;4.33;;;3.00;75.20;;;1.60;81.40;97517.91;5039476;28;20458;-71
2022/01/06 01:20:21;;;;;;;10.97;4.40;;;3.00;75.30;;;1.39;81.11;97493.47;5051286;28;20454;-71
2022/01/06 01:22:48;;;;;;;11.87;4.63;;;3.10;75.10;;;1.53;81.33;97512.41;5056388;28;20470;-71
2022/01/06 01:25:16;;;;;;;8.50;4.67;;;3.00;75.20;;;1.62;81.27;97513.22;5054390;28;20531;-71
2022/01/06 01:27:44;;;;;;;8.20;5.10;;;3.10;75.30;;;1.51;81.09;97511.75;5052362;28;20473;-71
2022/01/06 01:30:15;;;;;;;8.93;4.57;;;3.10;75.20;;;1.55;81.37;97519.25;5052548;28;20760;-71
2022/01/06 01:32:50;;;;;;;5.53;4.30;;;3.10;75.20;;;1.46;82.04;97519.44;5055893;28;20454;-72
2022/01/06 01:35:17;;;;;;;11.00;5.07;;;3.10;75.60;;;1.49;82.66;97535.88;5052088;28;20489;-72
2022/01/06 01:37:44;;;;;;;11.77;4.90;;;3.00;76.20;;;1.55;83.15;97535.22;5052179;28;20511;-71
2022/01/06 01:40:13;;;;;;;9.30;5.97;;;3.00;76.90;;;1.60;83.32;97532.06;5050613;28;20494;-71
2022/01/06 01:42:41;;;;;;;6.27;5.63;;;3.10;77.30;;;1.56;83.88;97525.38;5041673;28;21226;-71
2022/01/06 01:45:10;;;;;;;10.07;5.50;;;3.10;77.80;;;1.41;83.66;97528.75;5050329;28;20971;-71
2022/01/06 01:47:41;;;;;;;9.73;5.13;;;3.00;77.40;;;1.49;84.26;97529.75;5038915;28;20451;-71
2022/01/06 01:50:15;;;;;;;8.60;4.93;;;3.00;78.10;;;1.44;84.38;97526.72;5049827;28;20484;-71
2022/01/06 01:52:45;;;;;;;7.73;4.90;;;3.00;78.20;;;1.64;83.54;97529.84;5039878;28;20477;-71
2022/01/06 01:55:16;;;;;;;6.13;4.87;;;3.10;78.00;;;1.59;83.63;97541.00;5051190;28;20590;-71
2022/01/06 01:57:43;;;;;;;8.30;5.03;;;3.10;78.00;;;1.60;83.10;97536.53;5050460;28;20467;-71
2022/01/06 02:00:13;;;;;;;7.60;5.60;;;3.10;77.60;;;1.63;83.40;97542.34;5049024;28;20484;-71
2022/01/06 02:02:41;;;;;;;8.83;5.10;;;3.10;77.80;;;1.61;83.47;97544.38;5032561;28;20457;-71
2022/01/06 02:05:11;;;;;;;6.47;4.90;;;3.10;77.90;;;1.59;83.26;97550.84;5039316;28;20471;-71
2022/01/06 02:07:41;;;;;;;6.90;4.23;;;3.10;77.70;;;1.74;82.65;97556.28;5052339;28;20463;-71
2022/01/06 02:10:12;;;;;;;8.23;3.87;;;3.20;77.60;;;1.71;82.65;97549.50;5051682;28;20486;-71
2022/01/06 02:12:41;;;;;;;7.80;4.63;;;3.20;77.50;;;1.64;82.87;97553.81;5052905;28;20461;-71
2022/01/06 02:15:11;;;;;;;13.07;5.23;;;3.20;77.40;;;1.59;83.33;97541.00;5049469;28;20484;-71
2022/01/06 02:17:38;;;;;;;8.00;5.43;;;3.10;77.90;;;1.67;83.26;97549.00;5036257;28;20457;-71
2022/01/06 02:20:11;;;;;;;7.80;4.93;;;3.20;78.10;;;1.76;83.01;97551.66;5052493;28;20849;-71
2022/01/06 02:22:38;;;;;;;7.30;4.90;;;3.20;78.10;;;1.70;83.03;97548.66;5053469;28;20472;-73
2022/01/06 02:25:14;;;;;;;7.43;5.07;;;3.20;77.70;;;1.73;83.24;97560.81;5053932;28;20469;-71
2022/01/06 02:27:42;;;;;;;7.10;4.70;;;3.20;77.90;;;1.65;83.37;97555.50;5056436;28;21240;-71
2022/01/06 02:30:11;;;;;;;11.73;5.40;;;3.20;77.90;;;1.64;83.69;97557.34;5049937;28;20476;-71
2022/01/06 02:32:39;;;;;;;13.03;4.87;;;3.20;78.30;;;1.61;83.94;97560.34;5051475;28;20583;-71
2022/01/06 02:35:11;;;;;;;9.73;4.50;;;3.20;78.50;;;1.55;85.19;97555.69;5050806;28;20461;-71
2022/01/06 02:37:39;;;;;;;9.50;5.67;;;3.10;79.50;;;1.44;86.12;97556.03;5054794;28;21601;-71
2022/01/06 02:40:11;;;;;;;6.60;5.83;;;3.00;80.10;;;1.41;86.27;97558.03;5052063;28;20465;-71
2022/01/06 02:42:42;;;;;;;7.00;5.47;;;2.90;80.50;;;1.38;87.01;97558.38;5052980;28;20460;-73
2022/01/06 02:45:10;;;;;;;10.70;5.73;;;2.90;81.30;;;1.42;87.00;97573.00;5055386;28;20491;-71
2022/01/06 02:47:38;;;;;;;12.20;6.37;;;2.90;81.70;;;0.95;87.14;97497.34;5042035;28;20563;-72
2022/01/06 02:50:08;;;;;;;9.00;5.37;;;2.90;82.40;;;1.46;87.20;97572.69;5044420;28;21124;-70
2022/01/06 02:52:35;;;;;;;10.80;5.90;;;2.90;82.40;;;1.35;87.70;97572.03;5059435;28;20853;-71
2022/01/06 02:55:03;;;;;;;5.60;4.63;;;2.90;82.90;;;1.45;87.50;97571.03;5038359;28;20544;-71
2022/01/06 02:57:30;;;;;;;7.90;5.80;;;3.00;83.10;;;1.26;88.43;97573.00;5051021;28;20720;-70
2022/01/06 02:59:57;;;;;;;10.00;6.90;;;2.90;83.40;;;1.26;89.07;97570.34;5051510;28;20621;-71
2022/01/06 03:02:26;;;;;;;13.57;6.73;;;2.80;84.90;;;1.32;89.05;97569.69;5038390;28;20457;-71
2022/01/06 03:04:53;;;;;;;7.97;5.37;;;2.80;85.80;;;1.30;88.49;97578.84;5053432;28;20477;-71
2022/01/06 03:07:21;;;;;;;6.30;5.07;;;2.80;84.70;;;1.32;88.42;97577.69;5047957;28;20472;-71
2022/01/06 03:09:54;;;;;;;8.63;5.90;;;2.80;84.60;;;1.13;89.11;97579.66;5050732;28;20564;-71
2022/01/06 03:12:26;;;;;;;7.77;5.37;;;2.70;84.90;;;0.94;90.04;97579.97;5048086;28;20583;-71
2022/01/06 03:14:53;;;;;;;9.30;5.83;;;2.60;85.80;;;0.90;90.47;97595.44;5037982;28;20528;-72
2022/01/06 03:17:20;;;;;;;7.90;5.30;;;2.50;87.90;;;0.89;90.44;97592.97;5042582;28;20486;-70
2022/01/06 03:19:47;;;;;;;9.33;5.80;;;2.40;88.40;;;0.79;90.57;97593.94;5050693;28;20500;-71
2022/01/06 03:22:14;;;;;;;6.40;5.80;;;2.40;88.40;;;0.76;91.04;97591.59;5049765;28;20461;-72
2022/01/06 03:24:43;;;;;;;7.37;5.40;;;2.40;89.10;;;0.70;91.24;97597.59;5037392;28;20530;-71
2022/01/06 03:27:10;;;;;;;6.00;4.93;;;2.30;89.00;;;0.81;90.55;97601.75;5052139;28;20456;-71
2022/01/06 03:29:37;;;;;;;7.37;5.33;;;2.30;88.90;;;0.80;90.56;97605.41;5055341;28;20551;-71
2022/01/06 03:32:05;;;;;;;10.70;5.90;;;2.40;88.60;;;0.84;90.71;97607.59;5052147;28;21761;-71
2022/01/06 03:34:32;;;;;;;10.43;5.93;;;2.40;88.60;;;0.84;90.34;97610.25;5044648;28;21085;-71
2022/01/06 03:37:02;;;;;;;8.87;6.10;;;2.40;88.50;;;0.76;90.33;97604.06;5051183;28;20724;-71
2022/01/06 03:39:29;;;;;;;9.30;5.70;;;2.30;87.70;;;0.79;90.21;97609.88;5054445;28;20452;-71
2022/01/06 03:41:58;;;;;;;6.63;5.43;;;2.40;87.80;;;0.33;90.16;97554.44;5049220;28;20553;-70
2022/01/06 03:44:25;;;;;;;8.03;5.47;;;2.30;87.80;;;0.73;90.75;97615.88;5035205;28;20481;-70
2022/01/06 03:46:53;;;;;;;11.10;5.70;;;2.30;87.90;;;0.77;90.07;97621.69;5051720;28;20475;-69
2022/01/06 03:49:20;;;;;;;9.57;5.60;;;2.40;87.70;;;0.72;89.98;97592.94;5052471;28;20465;-69
2022/01/06 03:51:47;;;;;;;8.20;6.10;;;2.40;87.50;;;0.92;89.71;97624.53;5056803;28;20469;-70
2022/01/06 03:54:14;;;;;;;7.03;4.90;;;2.50;87.10;;;0.89;89.81;97616.91;5054782;28;20490;-70
2022/01/06 03:56:41;;;;;;;9.90;6.00;;;2.40;87.30;;;0.82;90.11;97617.53;5053991;28;20538;-70
2022/01/06 03:59:10;;;;;;;11.50;5.57;;;2.40;87.40;;;0.76;89.98;97618.19;5033455;28;20564;-70
2022/01/06 04:01:37;;;;;;;8.27;4.70;;;2.40;87.50;;;0.78;90.44;97631.34;5055910;28;20457;-70
2022/01/06 04:04:04;;;;;;;9.07;5.93;;;2.30;88.50;;;0.72;90.52;97627.50;5052443;28;20466;-70
2022/01/06 04:06:31;;;;;;;9.50;6.20;;;2.30;88.30;;;0.71;91.27;97628.50;5055394;28;20461;-70
2022/01/06 04:08:58;;;;;;;9.07;5.90;;;2.30;89.30;;;0.63;91.02;97625.81;5038683;28;20596;-70
2022/01/06 04:11:25;;;;;;;6.60;5.00;;;2.20;89.50;;;0.61;91.67;97633.97;5054234;28;20464;-70
2022/01/06 04:13:52;;;;;;;7.90;4.60;;;2.20;90.40;;;0.66;91.56;97636.97;5052341;28;20514;-70
2022/01/06 04:16:20;;;;;;;5.70;4.70;;;2.20;90.30;;;0.67;92.01;97645.75;5056371;28;20468;-70
2022/01/06 04:18:47;;;;;;;10.53;5.20;;;2.20;90.70;;;0.73;92.16;97646.94;5057951;28;20526;-70
2022/01/06 04:21:14;;;;;;;8.67;5.33;;;2.30;90.80;;;0.73;92.42;97650.44;5043669;28;21078;-70
2022/01/06 04:23:41;;;;;;;6.70;4.70;;;2.30;90.90;;;0.74;92.27;97660.09;5066328;28;20508;-71
2022/01/06 04:26:08;;;;;;;7.97;6.13;;;2.30;90.80;;;0.73;92.16;97650.44;5054491;28;20535;-70
2022/01/06 04:28:36;;;;;;;7.00;5.87;;;2.30;90.80;;;0.76;91.98;97655.44;5057271;28;21088;-71
2022/01/06 04:31:04;;;;;;;10.10;5.33;;;2.30;90.50;;;0.69;92.17;97662.41;5037855;28;20839;-71
2022/01/06 04:33:33;;;;;;;7.20;5.83;;;2.30;90.70;;;0.60;92.87;97668.66;5053669;28;20580;-71
2022/01/06 04:36:00;;;;;;;6.13;5.43;;;2.20;91.20;;;0.56;92.89;97679.63;5041926;28;20499;-71
2022/01/06 04:38:27;;;;;;;7.77;5.43;;;2.20;91.40;;;0.52;93.36;97672.94;5054993;28;20465;-71
2022/01/06 04:40:56;;;;;;;14.77;6.10;;;2.10;91.90;;;0.46;93.65;97684.22;5049703;28;20980;-71
2022/01/06 04:43:23;;;;;;;8.67;5.70;;;2.00;92.00;;;0.35;93.83;97673.88;5051507;28;20461;-70
2022/01/06 04:45:50;;;;;;;10.33;5.37;;;2.00;91.60;;;0.32;93.70;97692.81;5040095;28;20588;-71
2022/01/06 04:48:17;;;;;;;6.20;4.20;;;1.90;92.30;;;0.40;93.55;97695.50;5036697;28;20905;-70
2022/01/06 04:50:46;;;;;;;7.27;5.40;;;1.90;92.20;;;0.48;93.50;97694.72;5034182;28;20469;-70
2022/01/06 04:53:13;;;;;;;4.47;3.50;;;2.00;92.10;;;0.50;92.46;97701.53;5055117;28;21071;-71
2022/01/06 04:55:40;;;;;;;7.27;4.43;;;2.10;91.30;;;0.39;93.14;97688.53;5053561;28;21237;-70
2022/01/06 04:58:07;;;;;;;11.13;4.17;;;2.00;91.30;;;0.39;93.44;97694.66;5035607;28;20852;-70
2022/01/06 05:00:34;;;;;;;5.93;3.67;;;2.00;91.90;;;0.41;93.00;97689.19;5053830;28;20465;-70
2022/01/06 05:03:01;;;;;;;7.33;4.60;;;2.00;91.80;;;0.26;93.65;97687.13;5056295;28;20867;-70
2022/01/06 05:05:28;;;;;;;8.13;4.77;;;1.90;91.80;;;0.24;93.91;97697.09;5040710;28;20998;-71
2022/01/06 05:07:56;;;;;;;4.83;4.07;;;1.80;92.60;;;0.13;94.67;97700.00;5038582;28;20473;-71
2022/01/06 05:10:23;;;;;;;7.20;4.60;;;1.70;92.60;;;-0.04;95.07;97691.09;5052353;28;20503;-71
2022/01/06 05:12:50;;;;;;;10.40;4.60;;;1.60;93.50;;;0.01;95.57;97696.78;5052073;28;20469;-70
2022/01/06 05:15:17;;;;;;;7.67;5.20;;;1.60;94.70;;;-0.05;95.92;97703.56;5036371;28;20468;-71
2022/01/06 05:17:45;;;;;;;7.17;5.30;;;1.60;95.00;;;-0.06;95.90;97701.03;5040850;28;20450;-71
2022/01/06 05:20:13;;;;;;;7.00;4.20;;;1.60;95.60;;;-0.07;95.71;97710.84;5035735;28;20466;-72
2022/01/06 05:22:44;;;;;;;5.97;4.80;;;1.50;95.00;;;-0.16;95.62;97706.44;5056770;28;23248;-71
2022/01/06 05:25:13;;;;;;;8.43;5.37;;;1.50;94.30;;;-0.19;95.82;97709.41;5055843;28;20469;-72
2022/01/06 05:27:40;;;;;;;9.30;5.60;;;1.40;95.60;;;-0.40;96.32;97713.22;5056407;28;20457;-71
2022/01/06 05:30:09;;;;;;;9.97;5.43;;;1.30;95.50;;;-0.44;96.36;97704.75;5057607;28;20532;-72
2022/01/06 05:32:36;;;;;;;8.53;5.43;;;1.20;96.30;;;-0.42;96.27;97707.22;5056993;28;20437;-73
2022/01/06 05:35:04;;;;;;;7.37;4.90;;;1.20;96.60;;;-0.48;96.96;97719.28;5075484;28;20465;-71
2022/01/06 05:37:31;;;;;;;4.17;3.77;;;1.10;96.30;;;-0.47;96.33;97720.97;5075013;28;20445;-72
2022/01/06 05:39:58;;;;;;;8.10;4.23;;;1.10;96.80;;;-0.48;96.27;97723.78;5074712;28;20853;-70
2022/01/06 05:42:27;;;;;;;7.73;3.90;;;1.10;95.80;;;-0.51;96.18;97729.41;5074919;28;20437;-71
2022/01/06 05:44:54;;;;;;;7.47;3.80;;;1.10;95.60;;;-0.63;96.66;97729.63;5074945;28;20521;-71
2022/01/06 05:47:21;;;;;;;6.20;4.03;;;1.00;95.90;;;-0.63;96.38;97729.63;5074818;28;20849;-73
2022/01/06 05:49:48;;;;;;;5.07;3.60;;;1.00;95.80;;;-0.69;95.90;97724.09;5074148;28;20548;-72
2022/01/06 05:52:15;;;;;;;5.67;3.30;;;0.90;95.60;;;-0.67;96.25;97736.22;5075042;28;20524;-72
2022/01/06 05:54:42;;;;;;;6.87;3.53;;;0.90;96.10;;;-0.72;95.93;97736.66;5075702;28;20510;-78
2022/01/06 05:57:09;;;;;;;9.30;3.50;;;0.90;96.00;;;-0.65;95.28;97734.25;5056586;28;20532;-76
2022/01/06 05:59:37;;;;;;;9.47;3.80;;;0.90;95.20;;;-0.71;95.66;97729.53;5074513;28;20445;-75
2022/01/06 06:02:05;;;;;;;7.93;2.90;;;0.80;95.20;;;-0.62;95.44;97739.25;5056493;28;20426;-75
2022/01/06 06:04:32;;;;;;;6.93;3.10;;;0.80;96.40;;;-0.54;94.90;97740.28;5074782;28;20521;-75
2022/01/06 06:06:59;;;;;;;5.03;2.17;;;0.90;95.00;;;-0.48;94.52;97742.38;5074674;28;20441;-75
2022/01/06 06:09:26;;;;;;;3.07;2.40;;;0.90;94.60;;;-0.50;94.04;97744.34;5073907;28;20437;-74
2022/01/06 06:11:53;;;;;;;9.53;5.13;;;1.00;93.60;;;-0.50;94.30;97749.66;5074583;28;20480;-75
2022/01/06 06:14:20;;;;;;;6.40;4.20;;;1.10;93.00;;;-0.46;94.39;97748.34;5056850;28;20490;-75
2022/01/06 06:16:49;;;;;;;7.57;3.17;;;1.10;93.00;;;-0.60;94.25;97739.13;5074711;28;20544;-88
2022/01/06 06:19:16;;;;;;;7.57;3.30;;;1.10;92.80;;;-0.35;94.01;97761.41;5080757;28;20847;-90
2022/01/06 06:21:43;;;;;;;6.10;3.97;;;1.20;93.00;;;-0.36;94.43;97749.13;5078269;28;20465;-89
2022/01/06 06:24:10;;;;;;;6.00;3.60;;;1.30;93.10;;;-0.29;94.11;97760.78;5077514;28;20437;-89
2022/01/06 06:26:37;;;;;;;6.57;4.30;;;1.30;92.90;;;-0.61;94.66;97719.69;5059568;28;20436;-88
2022/01/06 06:29:04;;;;;;;14.50;4.63;;;1.30;93.60;;;-0.19;94.92;97783.78;5081956;28;20433;-88
2022/01/06 06:31:31;;;;;;;8.57;5.10;;;1.40;94.20;;;0.01;94.51;97778.28;5092754;28;20445;-88
2022/01/06 06:34:00;;;;;;;8.37;4.60;;;1.60;92.90;;;0.09;93.94;97779.19;5090529;28;20441;-89
2022/01/06 06:36:27;;;;;;;8.07;5.43;;;1.70;92.50;;;0.19;94.19;97783.59;5082844;28;20486;-89
2022/01/06 06:38:54;;;;;;;8.43;5.80;;;1.70;92.50;;;0.11;92.95;97752.47;5077095;28;20472;-85
2022/01/06 06:41:21;;;;;;;9.13;4.80;;;1.80;91.80;;;0.36;92.73;97784.50;5075831;28;20970;-86
2022/01/06 06:43:48;;;;;;;5.23;4.60;;;1.90;91.40;;;0.34;92.55;97778.53;5074006;28;20453;-84
2022/01/06 06:46:15;;;;;;;10.53;5.50;;;1.90;91.30;;;0.41;92.83;97787.56;5056453;28;20441;-84
2022/01/06 06:48:42;;;;;;;9.47;5.97;;;2.00;91.20;;;0.39;92.40;97778.91;5075081;28;20473;-84
2022/01/06 06:51:11;;;;;;;14.63;5.93;;;2.00;91.00;;;0.47;92.05;97789.56;5056611;28;20549;-82
2022/01/06 06:53:38;;;;;;;15.50;6.23;;;2.00;90.50;;;-0.06;92.14;97699.22;5057829;28;20434;-84
2022/01/06 06:56:05;;;;;;;8.03;5.40;;;2.10;90.60;;;0.31;91.85;97746.94;5074368;28;20924;-79
2022/01/06 06:58:32;;;;;;;10.07;4.90;;;2.10;90.50;;;0.21;92.03;97745.22;5060621;28;20498;-83
2022/01/06 07:00:59;;;;;;;6.67;5.50;;;2.10;90.30;;;0.61;91.63;97806.78;5070176;28;20453;-76
2022/01/06 07:03:26;;;;;;;10.47;5.70;;;2.20;90.20;;;0.52;91.74;97816.53;5073933;28;20453;-76
2022/01/06 07:05:53;;;;;;;9.43;4.90;;;2.10;90.10;;;0.51;91.55;97804.22;5072065;28;20982;-76
2022/01/06 07:08:22;;;;;;;15.60;5.90;;;2.20;90.00;;;0.64;91.37;97824.25;5056111;28;20556;-76
2022/01/06 07:10:49;;;;;;;9.87;5.57;;;2.20;89.30;;;0.77;91.07;97824.66;5055288;28;20955;-75
2022/01/06 07:13:18;;;;;;;7.97;5.40;;;2.30;89.70;;;0.78;90.49;97836.97;5073562;28;20524;-75
2022/01/06 07:15:45;;;;;;;22.57;6.03;;;2.30;88.70;;;0.77;90.08;97845.13;5073495;28;20962;-76
2022/01/06 07:18:12;;;;;;;15.00;5.50;;;2.30;87.60;;;0.78;90.02;97839.63;5073495;28;20510;-75
2022/01/06 07:20:39;;;;;;;17.83;5.83;;;2.40;87.00;;;0.76;90.23;97844.28;5073741;28;20458;-75
2022/01/06 07:23:06;;;;;;;10.63;5.53;;;2.30;87.50;;;0.79;89.79;97849.28;5077267;28;20767;-75
2022/01/06 07:25:35;;;;;;;9.57;5.70;;;2.40;87.00;;;0.78;89.83;97850.25;5076230;28;20484;-76
2022/01/06 07:28:02;;;;;;;11.50;6.40;;;2.40;86.70;;;0.75;90.09;97858.56;5078135;28;20529;-76
2022/01/06 07:30:31;;;;;;;10.30;5.83;;;2.30;87.10;;;0.77;90.11;97859.22;5077639;28;20461;-74
2022/01/06 07:32:58;;;;;;;16.60;6.37;;;2.30;87.20;;;0.82;89.88;97854.28;5059505;28;20469;-75
2022/01/06 07:35:25;;;;;;;11.90;5.50;;;2.40;87.10;;;0.74;89.66;97846.25;5077063;28;20447;-74
2022/01/06 07:37:53;;;;;;;13.50;6.00;;;2.40;86.50;;;0.88;90.04;97870.63;5077640;28;20449;-77
2022/01/06 07:40:21;;;;;;;7.63;5.93;;;2.40;86.80;;;0.84;89.72;97868.28;5076718;28;20795;-76
2022/01/06 07:42:50;;;;;;;6.70;3.83;;;2.40;86.60;;;0.82;89.51;97864.91;5077384;28;20981;-76
2022/01/06 07:45:18;;;;;;;8.83;5.33;;;2.40;86.20;;;0.93;89.06;97881.59;5077498;28;20469;-76
2022/01/06 07:47:56;;;;;;;12.90;6.27;;;2.50;85.90;;;0.97;89.12;97877.63;5077127;28;20460;-76
2022/01/06 07:50:25;;;;;;;9.37;5.03;;;2.50;85.90;;;0.89;88.95;97886.41;5076671;28;20441;-76
2022/01/06 07:52:52;;;;;;;7.27;4.57;;;2.50;85.50;;;0.93;88.77;97884.25;5075808;28;20453;-75
2022/01/06 07:55:19;;;;;;;11.63;4.87;;;2.50;85.50;;;0.92;89.35;97890.59;5076095;28;20866;-78
2022/01/06 07:57:46;;;;;;;8.83;5.73;;;2.50;85.60;;;0.89;89.37;97882.91;5077776;28;20439;-75
2022/01/06 08:00:16;;;;;;;10.87;6.50;;;2.50;85.50;;;0.87;89.47;97892.88;5076883;28;20437;-75
2022/01/06 08:02:43;;;;;;;12.47;5.87;;;2.40;85.80;;;0.86;89.21;97889.38;5076640;28;20507;-76
2022/01/06 08:05:12;;;;;;;8.93;5.47;;;2.50;85.90;;;0.96;89.22;97897.25;5077492;28;20445;-75
2022/01/06 08:07:39;;;;;;;10.63;5.80;;;2.50;85.90;;;0.98;88.88;97896.13;5075777;28;20558;-75
2022/01/06 08:10:09;;;;;;;8.00;5.63;;;2.60;85.60;;;1.04;88.77;97897.31;5058839;28;20441;-76
2022/01/06 08:12:36;;;;;;;7.40;4.97;;;2.60;85.40;;;1.11;88.39;97905.50;5076414;28;20919;-73
2022/01/06 08:15:05;;;;;;;11.17;5.17;;;2.70;84.50;;;1.07;88.21;97910.28;5058448;28;20450;-73
2022/01/06 08:17:33;;;;;;;12.33;6.00;;;2.70;84.20;;;1.12;88.35;97912.50;5075228;28;20987;-73
2022/01/06 08:20:00;;;;;;;8.80;5.83;;;2.70;84.60;;;1.20;88.22;97917.03;5075500;28;20457;-73
2022/01/06 08:22:29;;;;;;;14.67;5.20;;;2.70;85.00;;;1.24;87.23;97921.88;5076405;28;20444;-73
2022/01/06 08:24:56;;;;;;;10.17;5.50;;;2.80;83.90;;;1.29;87.92;97931.22;5076511;28;20490;-74
2022/01/06 08:27:24;;;;;;;7.80;5.13;;;2.80;84.60;;;1.30;87.51;97924.91;5075025;28;20520;-73
2022/01/06 08:29:52;;;;;;;7.63;5.23;;;2.80;83.50;;;1.20;87.20;97933.81;5076000;28;20546;-73
2022/01/06 08:32:21;;;;;;;9.80;4.90;;;2.80;83.10;;;1.29;87.12;97933.88;5075376;28;20457;-74
2022/01/06 08:34:50;;;;;;;7.50;5.70;;;2.80;83.90;;;1.30;87.41;97941.72;5076190;28;20437;-73
2022/01/06 08:37:18;;;;;;;10.37;5.73;;;2.80;83.50;;;1.33;87.02;97948.53;5074596;28;20541;-72
2022/01/06 08:39:45;;;;;;;9.60;4.90;;;2.90;83.30;;;1.34;86.74;97953.72;5075749;28;20758;-73
2022/01/06 08:42:12;;;;;;;8.97;6.20;;;2.90;83.30;;;1.34;87.12;97953.72;5076143;28;20430;-73
2022/01/06 08:44:41;;;;;;;10.50;5.70;;;2.90;82.90;;;1.36;86.78;97957.03;5076374;28;20437;-75
2022/01/06 08:47:09;;;;;;;12.90;6.90;;;2.90;82.70;;;1.34;86.97;97969.69;5075918;28;20441;-74
2022/01/06 08:49:37;;;;;;;7.93;5.63;;;2.90;82.90;;;1.36;86.96;97965.03;5075625;28;20494;-75
2022/01/06 08:52:06;;;;;;;8.63;6.30;;;2.90;83.20;;;1.46;86.82;97966.75;5075293;28;20485;-74
2022/01/06 08:54:33;;;;;;;9.73;5.60;;;3.00;83.20;;;1.58;85.96;97970.78;5062800;28;20477;-74
2022/01/06 08:57:01;;;;;;;6.73;5.43;;;3.10;82.30;;;1.56;86.04;97970.13;5079640;28;20455;-74
2022/01/06 08:59:28;;;;;;;7.87;5.77;;;3.10;82.20;;;1.61;86.22;97970.50;5082920;28;20446;-76
2022/01/06 09:01:56;;;;;;;6.90;4.50;;;3.10;82.30;;;1.48;85.92;97986.88;5060923;28;20872;-75
2022/01/06 09:04:23;;;;;;;8.97;5.83;;;3.00;81.70;;;1.55;85.65;97976.44;5077653;28;20480;-74
2022/01/06 09:06:51;;;;;;;8.70;5.43;;;3.10;81.70;;;1.50;85.75;97984.06;5075774;28;20445;-74
2022/01/06 09:09:21;;;;;;;11.50;5.60;;;3.10;81.60;;;1.21;85.35;97932.00;5057243;28;20528;-76
2022/01/06 09:11:48;;;;;;;14.13;4.77;;;3.10;81.60;;;1.27;85.64;97942.00;5075358;28;20951;-74
2022/01/06 09:14:16;;;;;;;10.63;5.80;;;3.10;81.80;;;1.68;87.18;97989.34;5058156;28;20468;-75
2022/01/06 09:16:43;;;;;;;9.10;4.90;;;3.20;84.10;;;1.82;85.60;97998.53;5075748;28;20472;-75
2022/01/06 09:19:11;;;;;;;11.70;5.00;;;3.30;82.70;;;1.85;85.98;97992.88;5074972;28;20476;-74
2022/01/06 09:21:38;;;;;;;12.50;5.27;;;3.40;82.50;;;1.79;84.65;97989.03;5057882;28;20481;-73
2022/01/06 09:24:06;;;;;;;18.03;5.30;;;3.30;80.90;;;1.52;85.31;97998.06;5073711;28;20444;-74
2022/01/06 09:26:35;;;;;;;13.13;5.67;;;3.20;81.00;;;1.64;85.81;97996.81;5071894;28;20552;-74
2022/01/06 09:29:04;;;;;;;7.97;5.27;;;3.20;81.80;;;1.67;84.98;97996.47;5075194;28;20516;-73
2022/01/06 09:31:33;;;;;;;9.90;4.63;;;3.30;81.50;;;1.90;85.14;98006.59;5056951;28;20461;-74
2022/01/06 09:34:02;;;;;;;9.70;5.17;;;3.40;81.50;;;1.95;84.77;98003.41;5057063;28;20437;-82
2022/01/06 09:36:29;;;;;;;7.43;5.23;;;3.40;81.10;;;1.81;84.31;98010.19;5074686;28;21050;-82
2022/01/06 09:38:56;;;;;;;7.77;4.40;;;3.40;80.10;;;1.93;84.67;98014.25;5057413;28;20451;-75
2022/01/06 09:41:26;;;;;;;5.97;4.47;;;3.40;80.70;;;1.83;84.43;98018.88;5074847;28;20508;-70
2022/01/06 09:43:55;;;;;;;7.57;4.70;;;3.40;80.30;;;1.77;84.03;98022.19;5075351;28;20442;-74
2022/01/06 09:46:22;;;;;;;8.27;5.07;;;3.30;80.10;;;1.85;84.48;98024.88;5073736;28;20447;-73
2022/01/06 09:48:50;;;;;;;11.43;4.40;;;3.30;80.80;;;2.02;83.27;98020.44;5074792;28;20461;-75
2022/01/06 09:51:18;;;;;;;8.60;4.13;;;3.50;80.20;;;1.98;83.22;98024.44;5074990;28;20494;-72
2022/01/06 09:53:45;;;;;;;6.43;4.27;;;3.50;79.70;;;2.00;83.41;98026.94;5074502;28;20537;-73
2022/01/06 09:56:13;;;;;;;9.93;5.23;;;3.50;79.60;;;2.08;82.90;98018.97;5074144;28;20467;-74
2022/01/06 09:58:40;;;;;;;7.03;4.63;;;3.60;79.80;;;2.15;82.80;98014.66;5074593;28;20913;-80
2022/01/06 10:01:09;;;;;;;8.63;4.87;;;3.60;79.00;;;2.28;81.47;98022.22;5056320;28;20933;-75
2022/01/06 10:03:37;;;;;;;10.47;4.60;;;3.70;78.60;;;2.14;82.41;98023.66;5074695;28;20562;-77
2022/01/06 10:06:15;;;;;;;8.33;4.03;;;3.60;78.50;;;2.09;82.48;98026.78;5074705;28;20513;-78
2022/01/06 10:08:43;;;;;;;9.93;5.37;;;3.60;78.70;;;2.08;82.45;98026.97;5076174;28;20445;-77
2022/01/06 10:11:14;;;;;;;11.87;7.33;;;3.60;78.60;;;1.97;82.82;98034.25;5084443;28;20493;-80
2022/01/06 10:13:45;;;;;;;12.40;6.83;;;3.50;79.10;;;1.89;82.95;98036.88;5092000;28;20446;-80
2022/01/06 10:16:18;;;;;;;12.40;4.90;;;3.50;79.00;;;1.70;84.18;98035.28;5072770;28;20430;-81
2022/01/06 10:19:10;;;;;;;6.43;4.40;;;3.30;79.40;;;1.76;84.52;98033.84;5080772;28;20469;-76
2022/01/06 10:21:40;;;;;;;13.83;5.00;;;3.30;80.00;;;1.74;83.75;98028.66;5044081;28;20491;-79
2022/01/06 10:24:12;;;;;;;5.90;4.07;;;3.30;79.60;;;1.99;83.05;98042.09;5074284;28;20445;-76
2022/01/06 10:26:52;;;;;;;7.70;4.83;;;3.50;79.40;;;2.26;82.54;98046.38;5074718;28;20469;-79
2022/01/06 10:29:20;;;;;;;7.47;5.23;;;3.70;79.20;;;2.28;81.38;98037.38;5074643;28;20533;-78
2022/01/06 10:31:48;;;;;;;8.40;4.57;;;3.80;78.40;;;2.26;81.04;98035.69;5074764;28;20469;-78
2022/01/06 10:34:15;;;;;;;7.73;4.73;;;3.80;78.20;;;2.47;81.04;98041.59;5075218;28;20491;-81
2022/01/06 10:36:43;;;;;;;5.63;4.10;;;3.90;78.30;;;2.68;80.13;98041.13;5057625;28;20529;-80
2022/01/06 10:39:10;;;;;;;10.27;4.53;;;4.10;77.80;;;2.75;79.47;98046.66;5059585;28;20434;-79